Time;durP1;ratioP1;P1;durP2;ratioP2;P2;SDS_P1;SDS_P2;PMS_P1;PMS_P2;Temp;Humidity;BMP_temperature;BMP_pressure;BME280_temperature;BME280_humidity;BME280_pressure;Samples;Min_cycle;Max_cycle;Signal;HPM_P1;HPM_P2
2022/04/12 00:00:14;;;;;;;3.90;3.30;;;11.80;60.30;;;;;;4954411;29;20210;-77
2022/04/12 00:02:43;;;;;;;3.93;3.40;;;11.70;60.00;;;;;;4955564;28;20206;-77
2022/04/12 00:05:11;;;;;;;4.57;2.90;;;11.80;59.90;;;;;;4942983;29;20577;-77
2022/04/12 00:07:39;;;;;;;5.78;2.92;;;11.80;60.50;;;;;;4936098;29;20230;-76
2022/04/12 00:10:10;;;;;;;5.22;3.40;;;11.70;60.40;;;;;;4937299;29;20187;-76
2022/04/12 00:12:39;;;;;;;4.80;3.10;;;11.80;60.80;;;;;;4951619;29;20194;-76
2022/04/12 00:15:08;;;;;;;4.63;3.47;;;11.70;61.10;;;;;;4951510;29;20213;-76
2022/04/12 00:20:23;;;;;;;3.67;3.07;;;11.60;62.10;;;;;;4928374;29;20201;-76
2022/04/12 00:22:50;;;;;;;3.23;2.93;;;11.70;61.90;;;;;;4935783;29;20214;-76
2022/04/12 00:25:19;;;;;;;4.53;3.13;;;11.70;61.70;;;;;;4951830;28;20226;-76
2022/04/12 00:27:47;;;;;;;4.38;3.75;;;11.60;61.80;;;;;;4951833;28;20590;-76
2022/04/12 00:30:15;;;;;;;4.97;3.43;;;11.60;63.10;;;;;;4951530;29;20198;-76
2022/04/12 00:32:43;;;;;;;4.00;3.27;;;11.60;63.00;;;;;;4935769;29;20206;-76
2022/04/12 00:35:11;;;;;;;4.63;3.70;;;11.60;63.20;;;;;;4951355;29;20215;-76
2022/04/12 00:37:40;;;;;;;4.65;3.85;;;11.70;63.10;;;;;;4950974;28;20226;-76
2022/04/12 00:40:09;;;;;;;4.75;3.13;;;11.50;63.50;;;;;;4934948;29;20221;-78
2022/04/12 00:42:36;;;;;;;4.30;3.30;;;11.50;64.50;;;;;;4950856;28;20206;-76
2022/04/12 00:45:06;;;;;;;3.77;3.43;;;11.70;64.70;;;;;;4935008;29;20233;-77
2022/04/12 00:47:33;;;;;;;3.77;3.30;;;11.80;64.70;;;;;;4934116;29;20233;-77
2022/04/12 00:50:01;;;;;;;3.83;3.30;;;11.80;64.50;;;;;;4937046;29;20206;-77
2022/04/12 00:52:30;;;;;;;6.13;3.22;;;11.80;63.70;;;;;;4955645;28;20209;-77
2022/04/12 00:54:58;;;;;;;4.65;3.60;;;11.80;64.40;;;;;;4948933;29;20206;-76
2022/04/12 00:57:26;;;;;;;4.13;3.23;;;11.70;64.50;;;;;;4950379;28;20221;-76
2022/04/12 00:59:54;;;;;;;5.40;3.13;;;11.70;64.50;;;;;;4951367;29;20207;-77
2022/04/12 01:02:24;;;;;;;5.23;3.73;;;11.70;64.70;;;;;;4934932;29;20198;-76
2022/04/12 01:04:52;;;;;;;4.03;3.43;;;11.70;65.10;;;;;;4938308;29;20218;-76
2022/04/12 01:07:19;;;;;;;5.03;3.93;;;11.70;65.70;;;;;;4949000;28;20245;-76
2022/04/12 01:09:48;;;;;;;6.73;3.70;;;11.60;65.80;;;;;;4950771;28;20229;-76
2022/04/12 01:12:18;;;;;;;4.40;3.70;;;11.50;66.80;;;;;;4951286;29;20667;-76
2022/04/12 01:14:45;;;;;;;4.57;3.50;;;11.60;67.20;;;;;;4950974;29;20198;-76
2022/04/12 01:17:15;;;;;;;3.43;3.13;;;11.60;67.40;;;;;;4950440;29;20657;-76
2022/04/12 01:19:44;;;;;;;4.03;3.27;;;11.70;67.70;;;;;;4950779;28;20206;-76
2022/04/12 01:22:16;;;;;;;3.97;2.97;;;11.70;67.90;;;;;;4950707;28;20219;-76
2022/04/12 01:24:45;;;;;;;4.50;3.23;;;11.70;67.60;;;;;;4951203;29;20257;-76
2022/04/12 01:27:15;;;;;;;3.67;3.30;;;11.70;67.10;;;;;;4947404;28;20215;-77
2022/04/12 01:29:42;;;;;;;3.93;3.50;;;11.70;67.80;;;;;;4947469;29;20213;-76
2022/04/12 01:32:10;;;;;;;5.90;3.83;;;11.60;67.80;;;;;;4950963;28;20206;-76
2022/04/12 01:34:39;;;;;;;4.10;3.47;;;11.60;68.20;;;;;;4950862;28;20214;-77
2022/04/12 01:37:07;;;;;;;3.73;3.43;;;11.50;68.00;;;;;;4950822;29;20198;-77
2022/04/12 01:39:35;;;;;;;4.47;3.87;;;11.50;69.40;;;;;;4934260;29;20705;-76
2022/04/12 01:42:04;;;;;;;4.33;2.93;;;11.50;69.30;;;;;;4950389;28;20217;-76
2022/04/12 01:44:31;;;;;;;4.00;3.50;;;11.40;68.80;;;;;;4934351;29;20211;-77
2022/04/12 01:46:59;;;;;;;3.73;3.40;;;11.40;70.00;;;;;;4936322;29;20190;-76
2022/04/12 01:49:26;;;;;;;6.73;3.47;;;11.40;71.00;;;;;;4950301;29;20207;-76
2022/04/12 01:51:53;;;;;;;3.97;3.40;;;11.30;71.00;;;;;;4970256;28;20197;-76
2022/04/12 01:54:23;;;;;;;4.50;3.97;;;11.30;72.30;;;;;;4967731;28;20194;-77
2022/04/12 01:56:51;;;;;;;4.13;3.60;;;11.20;72.20;;;;;;4950433;29;20219;-76
2022/04/12 01:59:19;;;;;;;4.40;3.50;;;11.20;72.90;;;;;;4935311;29;20221;-76
2022/04/12 02:01:51;;;;;;;4.87;3.43;;;11.10;74.20;;;;;;4954364;29;20209;-77
2022/04/12 02:04:18;;;;;;;5.27;3.67;;;10.80;77.80;;;;;;4938774;29;20205;-76
2022/04/12 02:06:46;;;;;;;4.93;4.00;;;10.80;80.10;;;;;;4953641;28;20226;-77
2022/04/12 02:09:13;;;;;;;4.40;4.00;;;10.70;81.40;;;;;;4951602;28;20234;-77
2022/04/12 02:11:41;;;;;;;6.53;3.83;;;10.50;83.00;;;;;;4954598;29;20202;-76
2022/04/12 02:14:08;;;;;;;5.20;3.90;;;10.40;85.30;;;;;;4938412;29;20202;-77
2022/04/12 02:16:37;;;;;;;6.17;3.77;;;10.40;87.60;;;;;;4937643;29;20213;-76
2022/04/12 02:19:04;;;;;;;4.30;3.60;;;10.20;89.40;;;;;;4953249;29;20230;-76
2022/04/12 02:21:32;;;;;;;4.93;4.40;;;10.10;90.40;;;;;;4953341;28;20221;-76
2022/04/12 02:23:59;;;;;;;5.70;4.07;;;10.10;90.90;;;;;;4953660;29;20205;-76
2022/04/12 02:26:26;;;;;;;4.13;3.30;;;10.00;91.30;;;;;;4934241;29;20578;-76
2022/04/12 02:28:54;;;;;;;3.87;3.53;;;9.90;92.30;;;;;;4934193;29;20578;-77
2022/04/12 02:31:25;;;;;;;4.83;4.20;;;10.10;92.70;;;;;;4934614;29;20318;-76
2022/04/12 02:33:54;;;;;;;4.87;3.60;;;10.20;92.30;;;;;;4947973;28;20214;-77
2022/04/12 02:36:21;;;;;;;4.40;3.80;;;10.40;91.90;;;;;;4937104;29;20202;-76
2022/04/12 02:38:48;;;;;;;4.70;3.77;;;10.50;91.40;;;;;;4952696;28;20225;-76
2022/04/12 02:41:16;;;;;;;6.13;4.23;;;10.60;90.80;;;;;;4953312;29;20218;-77
2022/04/12 02:43:43;;;;;;;5.77;4.33;;;10.70;90.60;;;;;;4938264;29;20206;-76
2022/04/12 02:46:11;;;;;;;6.87;4.60;;;10.70;90.40;;;;;;4937867;29;20229;-76
2022/04/12 02:48:38;;;;;;;6.70;4.40;;;10.60;90.40;;;;;;4953172;28;20234;-76
2022/04/12 02:51:07;;;;;;;5.07;4.00;;;10.70;90.30;;;;;;4946729;28;20197;-76
2022/04/12 02:53:34;;;;;;;4.67;4.13;;;10.70;90.50;;;;;;4954020;28;20206;-76
2022/04/12 02:56:02;;;;;;;5.53;4.20;;;10.70;90.30;;;;;;4953775;28;20198;-76
2022/04/12 02:58:30;;;;;;;6.53;4.20;;;10.70;89.90;;;;;;4952164;28;20250;-76
2022/04/12 03:00:57;;;;;;;5.33;4.20;;;10.60;90.10;;;;;;4953862;28;20202;-76
2022/04/12 03:03:25;;;;;;;6.07;4.33;;;10.60;90.20;;;;;;4937702;29;20206;-76
2022/04/12 03:06:08;;;;;;;6.63;4.70;;;10.40;90.40;;;;;;4953439;28;20585;-76
2022/04/12 03:08:35;;;;;;;4.50;4.10;;;10.20;91.50;;;;;;4952540;28;20233;-76
2022/04/12 03:11:03;;;;;;;4.70;4.23;;;10.10;92.60;;;;;;4952503;28;20210;-76
2022/04/12 03:13:30;;;;;;;4.83;4.40;;;10.30;93.30;;;;;;4952778;28;20209;-76
2022/04/12 03:15:58;;;;;;;7.67;4.97;;;10.50;92.40;;;;;;4952263;29;20661;-78
2022/04/12 03:18:25;;;;;;;5.17;4.30;;;10.50;91.60;;;;;;4933572;28;20239;-77
2022/04/12 03:21:00;;;;;;;5.53;4.93;;;10.40;91.60;;;;;;4919800;29;20215;-77
2022/04/12 03:23:30;;;;;;;6.70;4.80;;;10.50;91.80;;;;;;4938696;29;20183;-76
2022/04/12 03:25:57;;;;;;;6.07;5.20;;;10.60;92.00;;;;;;4952729;29;20577;-76
2022/04/12 03:28:24;;;;;;;6.87;5.20;;;10.60;91.70;;;;;;4952848;28;20219;-76
2022/04/12 03:30:52;;;;;;;7.50;5.67;;;10.50;91.80;;;;;;4952722;29;20561;-76
2022/04/12 03:33:21;;;;;;;6.83;5.60;;;10.60;91.60;;;;;;4952522;29;20202;-76
2022/04/12 03:35:49;;;;;;;9.53;5.87;;;10.50;91.90;;;;;;4937677;29;20213;-76
2022/04/12 03:38:16;;;;;;;7.90;5.43;;;10.50;91.60;;;;;;4952363;28;20606;-77
2022/04/12 03:40:47;;;;;;;5.80;5.20;;;10.50;91.50;;;;;;4951963;29;20202;-76
2022/04/12 03:43:14;;;;;;;8.20;5.57;;;10.50;91.70;;;;;;4945061;29;20224;-76
2022/04/12 03:45:41;;;;;;;7.20;5.67;;;10.20;91.90;;;;;;4936377;29;20203;-76
2022/04/12 03:48:09;;;;;;;8.47;5.50;;;9.80;93.80;;;;;;4937910;29;20232;-76
2022/04/12 03:50:36;;;;;;;6.40;5.27;;;9.80;94.70;;;;;;4956312;28;20206;-76
2022/04/12 03:53:04;;;;;;;6.00;5.47;;;9.70;94.80;;;;;;4956010;28;20205;-76
2022/04/12 03:55:31;;;;;;;8.10;5.57;;;9.50;95.80;;;;;;4952645;28;20207;-76
2022/04/12 03:58:01;;;;;;;7.30;5.80;;;9.50;96.30;;;;;;4928938;29;20226;-77
2022/04/12 04:00:29;;;;;;;5.90;5.17;;;9.40;96.40;;;;;;4952353;28;20653;-77
2022/04/12 04:02:57;;;;;;;6.73;5.47;;;9.50;97.20;;;;;;4936445;29;20541;-76
2022/04/12 04:05:25;;;;;;;7.07;5.97;;;9.60;96.50;;;;;;4952275;29;20209;-76
2022/04/12 04:07:53;;;;;;;8.17;5.13;;;9.50;96.00;;;;;;4951437;28;20723;-76
2022/04/12 04:10:21;;;;;;;7.03;5.43;;;9.50;96.60;;;;;;4942050;29;20194;-76
2022/04/12 04:12:48;;;;;;;6.77;5.80;;;9.50;96.60;;;;;;4935349;29;20213;-77
2022/04/12 04:15:18;;;;;;;6.87;6.17;;;9.50;96.40;;;;;;4951546;28;20210;-76
2022/04/12 04:17:46;;;;;;;7.60;5.90;;;9.20;96.90;;;;;;4949647;28;20222;-77
2022/04/12 04:20:16;;;;;;;6.73;5.37;;;9.10;98.20;;;;;;4951230;29;20209;-76
2022/04/12 04:22:43;;;;;;;6.70;6.00;;;9.10;99.00;;;;;;4923699;29;20697;-76
2022/04/12 04:25:12;;;;;;;8.87;5.67;;;9.10;98.70;;;;;;4932025;29;20673;-76
2022/04/12 04:27:41;;;;;;;6.40;5.70;;;9.10;99.10;;;;;;4929029;29;20226;-76
2022/04/12 04:30:10;;;;;;;6.60;5.53;;;9.50;97.80;;;;;;4934738;29;20211;-77
2022/04/12 04:32:39;;;;;;;6.87;5.80;;;9.70;97.40;;;;;;4950651;29;20210;-74
2022/04/12 04:35:08;;;;;;;7.80;6.87;;;9.70;96.30;;;;;;4951114;28;20198;-74
2022/04/12 04:37:42;;;;;;;7.50;6.43;;;9.70;96.40;;;;;;4934463;29;20219;-74
2022/04/12 04:40:11;;;;;;;7.03;6.33;;;9.50;96.60;;;;;;4932102;29;20194;-75
2022/04/12 04:43:02;;;;;;;6.77;6.13;;;9.50;97.70;;;;;;4951123;28;20571;-74
2022/04/12 04:45:29;;;;;;;6.43;5.77;;;9.30;98.40;;;;;;4951864;28;20202;-74
2022/04/12 04:48:00;;;;;;;7.57;5.90;;;9.20;99.10;;;;;;4948453;28;20237;-74
2022/04/12 04:50:29;;;;;;;6.90;5.60;;;9.10;99.70;;;;;;4923460;29;20217;-73
2022/04/12 04:52:58;;;;;;;7.87;5.80;;;8.90;99.50;;;;;;4951325;28;20544;-74
2022/04/12 04:55:26;;;;;;;6.57;5.97;;;9.20;99.90;;;;;;4950655;29;20206;-74
2022/04/12 04:57:55;;;;;;;8.70;6.37;;;9.50;99.00;;;;;;4949232;28;20230;-74
2022/04/12 05:00:25;;;;;;;7.33;6.50;;;9.60;98.10;;;;;;4944306;29;20202;-74
2022/04/12 05:02:54;;;;;;;9.80;5.90;;;9.70;97.20;;;;;;4950485;29;20205;-74
2022/04/12 05:05:23;;;;;;;6.23;4.10;;;9.70;97.40;;;;;;4950491;29;20283;-75
2022/04/12 05:07:51;;;;;;;4.40;4.00;;;10.80;98.70;;;;;;4959021;28;20241;-75
2022/04/12 05:10:42;;;;;;;6.27;4.83;;;11.50;95.50;;;;;;4933235;29;20222;-75
2022/04/12 05:13:09;;;;;;;7.97;6.20;;;11.30;94.80;;;;;;4949532;28;20206;-74
2022/04/12 05:15:36;;;;;;;9.03;6.20;;;11.00;93.70;;;;;;4946081;29;20217;-74
2022/04/12 05:18:04;;;;;;;7.37;6.00;;;10.60;94.50;;;;;;4947553;28;20226;-74
2022/04/12 05:20:33;;;;;;;7.30;6.17;;;10.40;94.90;;;;;;4930697;29;20213;-74
2022/04/12 05:23:00;;;;;;;7.30;6.20;;;10.20;95.10;;;;;;4937100;29;20214;-74
2022/04/12 05:25:28;;;;;;;6.97;6.27;;;10.30;95.70;;;;;;4931275;29;20206;-74
2022/04/12 05:27:56;;;;;;;7.77;6.93;;;10.10;95.00;;;;;;4947213;28;20238;-74
2022/04/12 05:30:24;;;;;;;8.50;7.00;;;9.90;96.00;;;;;;4927075;29;20696;-74
2022/04/12 05:32:54;;;;;;;7.83;7.13;;;9.70;96.60;;;;;;4951376;28;20216;-74
2022/04/12 05:35:22;;;;;;;10.10;7.80;;;9.70;97.20;;;;;;4948296;28;20650;-74
2022/04/12 05:37:52;;;;;;;9.70;7.40;;;9.70;97.70;;;;;;4931574;29;20215;-75
2022/04/12 05:40:21;;;;;;;10.77;8.30;;;9.70;97.60;;;;;;4933391;29;20206;-74
2022/04/12 05:42:52;;;;;;;8.33;6.90;;;9.70;97.00;;;;;;4949251;28;20214;-75
2022/04/12 05:45:19;;;;;;;9.17;6.57;;;9.80;97.00;;;;;;4932942;29;20194;-74
2022/04/12 05:47:49;;;;;;;7.70;6.33;;;9.80;97.00;;;;;;4927509;29;20239;-74
2022/04/12 05:50:17;;;;;;;10.00;7.03;;;9.90;97.00;;;;;;4912985;29;20203;-74
2022/04/12 05:52:45;;;;;;;9.27;6.87;;;9.90;97.30;;;;;;4934540;29;20205;-74
2022/04/12 05:55:16;;;;;;;7.93;6.40;;;10.10;96.30;;;;;;4949452;29;20197;-74
2022/04/12 05:57:51;;;;;;;6.50;5.80;;;10.10;95.90;;;;;;4947292;28;20221;-75
2022/04/12 06:00:20;;;;;;;8.30;6.23;;;10.30;95.70;;;;;;4929485;29;20202;-76
2022/04/12 06:02:48;;;;;;;7.50;5.00;;;10.60;95.50;;;;;;4929398;29;20219;-76
2022/04/12 06:05:15;;;;;;;9.10;7.47;;;10.90;94.30;;;;;;4945209;29;20206;-76
2022/04/12 06:07:43;;;;;;;10.67;7.03;;;10.80;94.60;;;;;;4931590;29;20236;-75
2022/04/12 06:10:12;;;;;;;7.07;6.40;;;10.80;94.40;;;;;;4933694;29;20185;-74
2022/04/12 06:12:41;;;;;;;8.70;6.23;;;10.80;94.40;;;;;;4931702;29;20198;-74
2022/04/12 06:15:09;;;;;;;10.63;7.10;;;10.90;94.00;;;;;;4949915;28;20204;-74
2022/04/12 06:17:37;;;;;;;8.17;6.00;;;10.90;94.00;;;;;;4952834;28;20237;-76
2022/04/12 06:20:08;;;;;;;9.90;7.23;;;11.00;94.00;;;;;;4934186;29;20199;-75
2022/04/12 06:22:36;;;;;;;10.43;7.17;;;11.00;94.10;;;;;;4933961;29;20210;-75
2022/04/12 06:25:04;;;;;;;8.20;6.30;;;11.00;94.10;;;;;;4948361;29;20214;-75
2022/04/12 06:27:33;;;;;;;7.27;6.57;;;11.20;93.90;;;;;;4932829;29;20245;-75
2022/04/12 06:30:06;;;;;;;6.23;5.53;;;11.30;93.70;;;;;;4949624;28;20206;-75
2022/04/12 06:32:35;;;;;;;8.57;6.83;;;11.30;93.70;;;;;;4932726;29;20206;-75
2022/04/12 06:35:03;;;;;;;12.17;7.97;;;11.30;93.50;;;;;;4931718;29;20198;-74
2022/04/12 06:37:30;;;;;;;8.77;6.70;;;11.50;93.30;;;;;;4932725;29;20218;-74
2022/04/12 06:39:58;;;;;;;8.10;5.50;;;11.50;93.30;;;;;;4952328;28;20213;-74
2022/04/12 06:42:26;;;;;;;6.07;4.13;;;11.80;93.30;;;;;;4948934;29;20217;-75
2022/04/12 06:44:53;;;;;;;5.90;5.30;;;12.10;92.90;;;;;;4932743;29;20202;-74
2022/04/12 06:47:22;;;;;;;6.37;3.90;;;12.20;92.60;;;;;;4961819;28;20218;-74
2022/04/12 06:49:51;;;;;;;5.10;3.70;;;12.50;91.50;;;;;;4936167;29;20580;-74
2022/04/12 06:52:19;;;;;;;7.30;3.73;;;12.70;90.50;;;;;;4938117;29;20217;-75
2022/04/12 06:54:48;;;;;;;4.25;3.38;;;12.80;90.10;;;;;;4952765;28;20210;-74
2022/04/12 06:57:16;;;;;;;5.90;3.17;;;13.00;87.10;;;;;;4931398;29;20233;-74
2022/04/12 06:59:43;;;;;;;6.30;3.75;;;13.10;87.80;;;;;;4949435;28;20214;-75
2022/04/12 07:02:11;;;;;;;4.90;3.58;;;13.10;87.80;;;;;;4953129;28;20563;-74
2022/04/12 07:04:40;;;;;;;4.00;3.60;;;13.10;87.10;;;;;;4937511;29;20191;-74
2022/04/12 07:07:07;;;;;;;6.15;3.97;;;13.30;87.30;;;;;;4955307;28;20652;-74
2022/04/12 07:09:35;;;;;;;4.57;3.33;;;13.40;85.80;;;;;;4952418;28;20210;-74
2022/04/12 07:12:03;;;;;;;5.63;4.32;;;13.50;84.50;;;;;;4931245;29;20211;-75
2022/04/12 07:14:32;;;;;;;5.45;3.50;;;13.60;86.20;;;;;;4935144;29;20209;-75
2022/04/12 07:17:00;;;;;;;5.05;3.63;;;13.60;83.60;;;;;;4942966;29;20660;-74
2022/04/12 07:19:28;;;;;;;6.00;3.55;;;13.60;83.80;;;;;;4935740;29;20218;-74
2022/04/12 07:21:56;;;;;;;5.97;3.75;;;13.60;83.10;;;;;;4961050;28;20569;-74
2022/04/12 07:24:24;;;;;;;7.25;3.80;;;13.80;82.60;;;;;;4948981;29;20684;-74
2022/04/12 07:26:51;;;;;;;5.57;3.90;;;13.80;84.20;;;;;;4957549;28;20230;-74
2022/04/12 07:29:18;;;;;;;7.07;4.03;;;13.90;81.10;;;;;;4934668;29;20230;-75
2022/04/12 07:31:46;;;;;;;4.55;3.55;;;14.00;81.90;;;;;;4951640;29;20582;-74
2022/04/12 07:34:13;;;;;;;4.18;3.50;;;14.00;80.60;;;;;;4951347;29;20210;-74
2022/04/12 07:36:47;;;;;;;5.03;3.75;;;14.00;79.40;;;;;;4950740;29;20203;-75
2022/04/12 07:39:16;;;;;;;4.63;3.40;;;14.00;81.80;;;;;;4943860;29;20225;-75
2022/04/12 07:41:45;;;;;;;6.00;3.85;;;14.10;78.40;;;;;;4957415;28;20207;-74
2022/04/12 07:44:13;;;;;;;4.88;3.70;;;14.10;77.10;;;;;;4932841;29;20210;-75
2022/04/12 07:46:40;;;;;;;3.83;3.33;;;14.30;77.50;;;;;;4943738;29;20577;-74
2022/04/12 07:49:07;;;;;;;4.20;3.78;;;14.30;77.20;;;;;;4935928;29;20235;-75
2022/04/12 07:51:35;;;;;;;5.45;3.33;;;14.50;75.80;;;;;;4950393;28;20534;-74
2022/04/12 07:54:03;;;;;;;3.85;2.92;;;14.60;80.30;;;;;;4948296;28;20191;-75
2022/04/12 07:56:32;;;;;;;4.80;3.47;;;14.70;76.40;;;;;;4956321;28;20198;-74
2022/04/12 07:59:01;;;;;;;4.35;3.35;;;14.80;77.50;;;;;;4933051;29;20222;-75
2022/04/12 08:01:28;;;;;;;6.18;2.95;;;14.80;74.90;;;;;;4951060;29;20202;-74
2022/04/12 08:03:55;;;;;;;4.00;3.33;;;14.70;73.50;;;;;;4937082;29;20201;-75
2022/04/12 08:06:24;;;;;;;4.63;3.00;;;14.80;73.50;;;;;;4945166;29;20274;-74
2022/04/12 08:08:51;;;;;;;3.95;2.53;;;14.90;72.80;;;;;;4952884;28;20226;-74
2022/04/12 08:11:18;;;;;;;4.88;3.45;;;15.10;76.30;;;;;;4947738;28;20673;-77
2022/04/12 08:13:47;;;;;;;4.43;2.75;;;15.20;74.00;;;;;;4934832;29;20202;-77
2022/04/12 08:16:15;;;;;;;3.33;2.47;;;15.20;73.70;;;;;;4954502;28;20202;-76
2022/04/12 08:18:43;;;;;;;2.97;2.42;;;15.10;70.70;;;;;;4939839;29;20812;-76
2022/04/12 08:21:11;;;;;;;4.05;2.65;;;15.20;70.80;;;;;;4935445;29;20202;-76
2022/04/12 08:23:38;;;;;;;3.75;2.50;;;15.20;71.40;;;;;;4949892;28;20202;-77
2022/04/12 08:26:07;;;;;;;3.97;2.17;;;15.40;70.80;;;;;;4959454;28;20205;-77
2022/04/12 08:28:53;;;;;;;4.43;2.05;;;15.50;71.00;;;;;;4932801;29;20233;-75
2022/04/12 08:31:21;;;;;;;3.75;2.50;;;15.50;70.30;;;;;;4955603;28;20198;-76
2022/04/12 08:33:49;;;;;;;2.97;1.85;;;15.60;69.60;;;;;;4933134;29;20692;-75
2022/04/12 08:36:20;;;;;;;3.55;2.10;;;15.70;68.40;;;;;;4949317;29;20202;-76
2022/04/12 08:38:49;;;;;;;5.07;2.17;;;15.80;70.20;;;;;;4948954;28;20226;-76
2022/04/12 08:41:24;;;;;;;3.67;1.83;;;15.90;71.90;;;;;;4948793;28;20213;-75
2022/04/12 08:43:57;;;;;;;3.58;1.90;;;15.90;69.10;;;;;;4934552;29;20195;-75
2022/04/12 08:46:27;;;;;;;2.42;1.88;;;16.00;71.70;;;;;;4950031;28;20202;-78
2022/04/12 08:48:56;;;;;;;1.77;1.60;;;16.10;72.50;;;;;;4932631;29;20227;-75
2022/04/12 08:51:28;;;;;;;4.20;2.33;;;16.20;71.50;;;;;;4947719;29;20206;-75
2022/04/12 08:54:17;;;;;;;6.10;1.83;;;16.30;71.40;;;;;;4949331;29;20214;-76
2022/04/12 08:56:45;;;;;;;3.75;2.20;;;16.40;70.10;;;;;;4932932;29;20210;-76
2022/04/12 08:59:14;;;;;;;7.15;2.20;;;16.50;71.20;;;;;;4931809;29;20221;-76
2022/04/12 09:01:42;;;;;;;4.72;2.28;;;16.60;70.60;;;;;;4948638;29;20209;-78
2022/04/12 09:04:10;;;;;;;3.00;1.90;;;16.70;67.20;;;;;;4945850;29;20210;-76
2022/04/12 09:06:49;;;;;;;6.47;2.63;;;16.70;69.10;;;;;;4948610;29;20256;-77
2022/04/12 09:09:19;;;;;;;6.57;2.50;;;16.90;67.70;;;;;;4946071;28;20233;-77
2022/04/12 09:12:10;;;;;;;2.15;1.80;;;16.90;65.60;;;;;;4933662;29;20209;-77
2022/04/12 09:14:40;;;;;;;4.90;1.98;;;17.00;66.70;;;;;;4934100;29;20194;-76
2022/04/12 09:17:21;;;;;;;4.38;1.58;;;17.10;63.90;;;;;;4947551;29;20205;-75
2022/04/12 09:20:13;;;;;;;4.20;2.25;;;17.00;63.90;;;;;;4949021;29;20217;-75
2022/04/12 09:22:41;;;;;;;2.95;1.40;;;17.10;63.10;;;;;;4948273;28;20202;-74
2022/04/12 09:25:10;;;;;;;4.05;1.73;;;17.10;61.90;;;;;;4949780;28;20195;-74
2022/04/12 09:27:39;;;;;;;3.05;1.70;;;17.10;63.10;;;;;;4932465;29;20230;-74
2022/04/12 09:30:11;;;;;;;2.63;1.70;;;17.20;64.10;;;;;;4950371;28;20234;-74
2022/04/12 09:32:39;;;;;;;3.10;1.70;;;17.20;61.10;;;;;;4941751;29;20205;-75
2022/04/12 09:35:08;;;;;;;2.22;1.70;;;17.40;62.70;;;;;;4949039;29;20206;-74
2022/04/12 09:37:38;;;;;;;1.80;1.52;;;17.40;61.80;;;;;;4934449;29;20218;-77
2022/04/12 09:40:07;;;;;;;2.47;1.73;;;17.40;62.30;;;;;;4949544;29;20198;-75
2022/04/12 09:42:47;;;;;;;2.40;1.60;;;17.50;63.30;;;;;;4952864;28;20206;-74
2022/04/12 09:45:18;;;;;;;2.30;1.60;;;17.60;64.70;;;;;;4939600;29;20210;-75
2022/04/12 09:47:46;;;;;;;1.95;1.80;;;17.60;61.30;;;;;;4949629;28;20230;-74
2022/04/12 09:50:14;;;;;;;2.67;1.90;;;17.90;61.40;;;;;;4950100;28;20590;-74
2022/04/12 09:52:54;;;;;;;1.90;1.50;;;17.90;62.40;;;;;;4933002;29;20202;-74
2022/04/12 09:55:34;;;;;;;2.58;1.35;;;17.80;60.30;;;;;;4930569;29;20210;-75
2022/04/12 09:58:02;;;;;;;2.45;1.50;;;17.90;61.90;;;;;;4951454;28;20218;-74
2022/04/12 10:00:31;;;;;;;4.63;1.98;;;17.90;60.40;;;;;;4948672;28;20206;-75
2022/04/12 10:03:00;;;;;;;2.67;1.65;;;18.10;61.10;;;;;;4937469;29;20194;-75
2022/04/12 10:05:28;;;;;;;3.20;1.55;;;18.00;57.90;;;;;;4943161;29;20206;-75
2022/04/12 10:07:59;;;;;;;5.15;1.75;;;18.10;58.30;;;;;;4948345;28;20245;-75
2022/04/12 10:10:27;;;;;;;2.53;1.65;;;18.20;58.00;;;;;;4945780;29;20233;-76
2022/04/12 10:12:55;;;;;;;2.97;1.70;;;18.40;61.70;;;;;;4944254;28;20198;-75
2022/04/12 10:15:23;;;;;;;2.88;1.92;;;18.50;58.00;;;;;;4946430;28;20676;-75
2022/04/12 10:17:53;;;;;;;1.73;1.60;;;18.50;58.10;;;;;;4945604;28;20226;-75
2022/04/12 10:20:24;;;;;;;3.30;1.80;;;18.60;56.60;;;;;;4948593;28;20195;-76
2022/04/12 10:23:11;;;;;;;1.80;1.45;;;18.70;57.80;;;;;;4951725;28;20210;-74
2022/04/12 10:25:39;;;;;;;4.75;1.90;;;18.90;59.30;;;;;;4938025;29;20199;-75
2022/04/12 10:28:08;;;;;;;2.85;1.70;;;19.00;58.10;;;;;;4935506;29;20222;-74
2022/04/12 10:30:35;;;;;;;4.50;1.85;;;19.00;59.20;;;;;;4936543;28;20233;-74
2022/04/12 10:33:06;;;;;;;3.40;1.70;;;19.10;57.70;;;;;;4951519;29;20202;-80
2022/04/12 10:36:02;;;;;;;2.70;1.40;;;18.90;55.20;;;;;;4951948;28;20206;-76
2022/04/12 10:38:41;;;;;;;2.28;1.52;;;18.90;55.40;;;;;;4949684;28;20640;-76
2022/04/12 10:41:17;;;;;;;4.32;1.83;;;19.00;55.80;;;;;;4933359;29;20210;-76
2022/04/12 10:43:45;;;;;;;2.40;1.60;;;19.10;54.50;;;;;;4934017;29;20210;-77
2022/04/12 10:46:13;;;;;;;2.13;1.42;;;19.10;54.40;;;;;;4950936;28;20586;-76
2022/04/12 10:48:41;;;;;;;2.00;1.63;;;19.10;54.60;;;;;;4952110;28;20230;-76
2022/04/12 10:51:09;;;;;;;4.63;1.60;;;19.10;55.20;;;;;;4934433;29;20222;-78
2022/04/12 10:53:56;;;;;;;2.78;1.40;;;19.30;57.90;;;;;;4951409;28;20214;-76
2022/04/12 10:56:25;;;;;;;2.72;1.70;;;19.40;55.30;;;;;;4934545;29;20221;-76
2022/04/12 10:58:53;;;;;;;1.40;1.30;;;19.30;54.60;;;;;;4949551;29;20711;-76
2022/04/12 11:01:31;;;;;;;3.65;2.17;;;19.20;54.20;;;;;;4935400;29;20206;-77
2022/04/12 11:04:02;;;;;;;2.42;1.42;;;19.30;54.50;;;;;;4936937;29;20178;-77
2022/04/12 11:06:30;;;;;;;3.50;1.40;;;19.40;53.20;;;;;;4947984;28;20202;-77
2022/04/12 11:09:09;;;;;;;2.22;1.27;;;19.60;53.70;;;;;;4939932;29;20234;-77
2022/04/12 11:11:40;;;;;;;1.75;1.50;;;19.60;53.20;;;;;;4950691;28;20206;-77
2022/04/12 11:14:25;;;;;;;2.90;1.42;;;19.80;54.00;;;;;;4951050;29;20221;-77
2022/04/12 11:16:58;;;;;;;1.48;1.38;;;19.90;54.60;;;;;;4947372;28;20638;-77
2022/04/12 11:19:27;;;;;;;2.88;1.63;;;19.90;53.60;;;;;;4957113;28;20230;-77
2022/04/12 11:22:00;;;;;;;2.38;1.52;;;19.90;52.60;;;;;;4952761;28;20202;-76
2022/04/12 11:24:28;;;;;;;1.33;1.20;;;19.90;53.00;;;;;;4936992;29;20210;-77
2022/04/12 11:27:07;;;;;;;2.10;1.20;;;20.00;52.50;;;;;;4949582;28;20210;-77
2022/04/12 11:29:34;;;;;;;4.15;1.50;;;20.30;53.10;;;;;;4929180;29;20656;-78
2022/04/12 11:32:03;;;;;;;2.15;1.33;;;20.20;51.50;;;;;;4953895;28;20206;-77
2022/04/12 11:34:32;;;;;;;2.80;1.38;;;20.20;51.70;;;;;;4947790;28;20213;-77
2022/04/12 11:37:02;;;;;;;2.92;1.17;;;20.30;51.00;;;;;;4933719;29;20214;-79
2022/04/12 11:39:30;;;;;;;2.75;1.20;;;20.30;51.50;;;;;;4940665;28;20222;-77
2022/04/12 11:41:59;;;;;;;1.90;1.10;;;20.70;50.20;;;;;;4938018;29;20221;-78
2022/04/12 11:44:27;;;;;;;2.95;1.30;;;20.80;51.30;;;;;;4946225;28;20210;-77
2022/04/12 11:47:01;;;;;;;3.03;0.93;;;21.00;50.70;;;;;;4948244;28;20206;-78
2022/04/12 11:49:31;;;;;;;2.65;1.17;;;20.80;50.90;;;;;;4956088;28;20217;-77
2022/04/12 11:52:01;;;;;;;3.95;1.67;;;20.80;50.50;;;;;;4954882;28;20213;-78
2022/04/12 11:54:30;;;;;;;1.67;0.93;;;20.60;50.10;;;;;;4952134;28;20202;-77
2022/04/12 11:57:07;;;;;;;3.15;1.27;;;20.70;50.30;;;;;;4934238;29;20210;-77
2022/04/12 11:59:36;;;;;;;1.30;1.00;;;20.90;50.10;;;;;;4964402;28;20201;-77
2022/04/12 12:02:07;;;;;;;3.00;1.00;;;21.20;50.60;;;;;;4929781;29;20214;-77
2022/04/12 12:04:37;;;;;;;1.30;1.20;;;21.20;50.10;;;;;;4931920;29;20206;-77
2022/04/12 12:07:08;;;;;;;2.17;1.15;;;21.30;48.80;;;;;;4948530;28;20597;-78
2022/04/12 12:09:36;;;;;;;2.28;1.05;;;21.30;48.30;;;;;;4950791;28;20221;-78
2022/04/12 12:12:06;;;;;;;1.85;1.20;;;21.40;48.20;;;;;;4959770;28;20209;-77
2022/04/12 12:14:35;;;;;;;1.45;1.20;;;21.40;48.00;;;;;;4931366;29;20573;-78
2022/04/12 12:17:08;;;;;;;1.92;1.20;;;21.40;48.70;;;;;;4956617;28;20214;-78
2022/04/12 12:19:39;;;;;;;1.95;1.10;;;21.30;47.80;;;;;;4951816;28;20203;-77
2022/04/12 12:22:10;;;;;;;1.40;0.90;;;21.30;47.30;;;;;;4935118;29;20206;-80
2022/04/12 12:24:50;;;;;;;2.65;1.05;;;21.40;47.70;;;;;;4949214;28;20206;-77
2022/04/12 12:27:30;;;;;;;1.67;1.20;;;21.40;47.90;;;;;;4952713;28;20206;-77
2022/04/12 12:30:02;;;;;;;1.63;1.27;;;21.40;48.00;;;;;;4933104;29;20213;-80
2022/04/12 12:32:34;;;;;;;3.30;1.38;;;21.50;47.10;;;;;;4949907;28;20197;-77
2022/04/12 12:35:04;;;;;;;1.90;1.20;;;21.50;48.10;;;;;;4947032;28;20566;-77
2022/04/12 12:37:32;;;;;;;2.58;1.10;;;21.60;47.60;;;;;;4932560;29;20587;-77
2022/04/12 12:40:00;;;;;;;3.30;1.17;;;21.70;47.90;;;;;;4944141;29;20707;-78
2022/04/12 12:42:37;;;;;;;2.25;1.15;;;21.70;48.70;;;;;;4965222;28;20213;-79
2022/04/12 12:45:13;;;;;;;2.10;1.20;;;21.80;47.90;;;;;;4947034;28;20209;-77
2022/04/12 12:47:43;;;;;;;1.42;1.15;;;21.90;47.80;;;;;;4942583;28;20319;-76
2022/04/12 12:50:13;;;;;;;2.03;1.20;;;21.70;48.00;;;;;;4920135;28;20687;-78
2022/04/12 12:52:43;;;;;;;2.22;0.93;;;21.50;46.50;;;;;;4910534;29;20729;-76
2022/04/12 12:55:16;;;;;;;1.30;1.20;;;21.40;46.40;;;;;;4923656;29;20219;-78
2022/04/12 12:57:48;;;;;;;3.03;1.25;;;21.30;47.70;;;;;;4912812;29;20230;-77
2022/04/12 13:00:17;;;;;;;2.70;1.45;;;21.40;47.40;;;;;;4925349;29;20202;-76
2022/04/12 13:02:45;;;;;;;2.13;1.20;;;21.30;47.00;;;;;;4930090;28;20245;-78